createdAt,value
2019-06-20T00:02:07.103Z,18.50
2019-06-20T00:04:34.472Z,18.50
2019-06-20T00:07:01.696Z,18.40
2019-06-20T00:09:29.061Z,18.40
2019-06-20T00:11:56.734Z,18.40
2019-06-20T00:14:24.028Z,18.40
2019-06-20T00:16:51.350Z,18.30
2019-06-20T00:19:18.704Z,18.30
2019-06-20T00:21:45.992Z,18.20
2019-06-20T00:24:13.493Z,18.20
2019-06-20T00:26:41.312Z,18.20
2019-06-20T00:29:08.524Z,18.20
2019-06-20T00:31:35.840Z,18.20
2019-06-20T00:34:03.150Z,18.20
2019-06-20T00:36:30.530Z,18.20
2019-06-20T00:38:57.866Z,18.20
2019-06-20T00:41:25.193Z,18.30
2019-06-20T00:43:52.448Z,18.30
2019-06-20T00:46:19.782Z,18.30
2019-06-20T00:48:46.966Z,18.30
2019-06-20T00:51:14.180Z,18.30
2019-06-20T00:53:41.482Z,18.20
2019-06-20T00:56:08.747Z,18.20
2019-06-20T00:58:36.186Z,18.20
2019-06-20T01:01:03.494Z,18.10
2019-06-20T01:03:30.761Z,18.10
2019-06-20T01:05:58.118Z,18.10
2019-06-20T01:08:25.351Z,18.10
2019-06-20T01:10:52.668Z,18.20
2019-06-20T01:13:33.253Z,18.20
2019-06-20T01:15:49.253Z,18.20
2019-06-20T01:18:16.475Z,18.20
2019-06-20T01:20:43.817Z,18.20
2019-06-20T01:23:11.177Z,18.20
2019-06-20T01:25:40.041Z,18.30
2019-06-20T01:28:07.771Z,18.30
2019-06-20T01:30:35.094Z,18.30
2019-06-20T01:33:02.414Z,18.40
2019-06-20T01:35:29.736Z,18.40
2019-06-20T01:37:57.055Z,18.40
2019-06-20T01:40:24.432Z,18.40
2019-06-20T01:42:51.797Z,18.40
2019-06-20T01:45:19.661Z,18.40
2019-06-20T01:47:46.992Z,18.40
2019-06-20T01:50:14.387Z,18.40
2019-06-20T01:52:41.717Z,18.40
2019-06-20T01:55:09.079Z,18.40
2019-06-20T01:57:36.413Z,18.40
2019-06-20T02:00:04.640Z,18.40
2019-06-20T02:02:32.593Z,18.30
2019-06-20T02:04:59.976Z,18.30
2019-06-20T02:07:28.250Z,18.20
2019-06-20T02:09:55.850Z,18.20
2019-06-20T02:12:23.196Z,18.20
2019-06-20T02:14:50.516Z,18.10
2019-06-20T02:17:17.996Z,18.10
2019-06-20T02:19:45.389Z,18.10
2019-06-20T02:22:12.602Z,18.10
2019-06-20T02:24:39.911Z,18.10
2019-06-20T02:27:07.272Z,18.10
2019-06-20T02:29:34.605Z,18.10
2019-06-20T02:32:01.825Z,18.10
2019-06-20T02:34:29.257Z,18.10
2019-06-20T02:36:56.623Z,18.10
2019-06-20T02:39:23.858Z,18.10
2019-06-20T02:41:51.215Z,18.00
2019-06-20T02:44:30.128Z,18.00
2019-06-20T02:46:48.052Z,18.00
2019-06-20T02:49:15.350Z,17.90
2019-06-20T02:51:43.309Z,17.90
2019-06-20T02:54:10.550Z,17.90
2019-06-20T02:56:37.837Z,17.90
2019-06-20T02:59:05.200Z,17.90
2019-06-20T03:01:33.350Z,17.90
2019-06-20T03:04:00.801Z,17.80
2019-06-20T03:06:28.277Z,17.80
2019-06-20T03:08:55.646Z,17.80
2019-06-20T03:11:23.018Z,17.80
2019-06-20T03:13:50.429Z,17.80
2019-06-20T03:16:17.757Z,17.80
2019-06-20T03:18:45.072Z,17.70
2019-06-20T03:21:12.440Z,17.70
2019-06-20T03:23:40.022Z,17.80
2019-06-20T03:26:07.259Z,17.80
2019-06-20T03:28:34.591Z,17.80
2019-06-20T03:31:01.912Z,17.70
2019-06-20T03:33:29.251Z,17.70
2019-06-20T03:35:56.476Z,17.60
2019-06-20T03:38:23.830Z,17.60
2019-06-20T03:40:51.144Z,17.50
2019-06-20T03:43:19.338Z,17.50
2019-06-20T03:45:46.777Z,17.60
2019-06-20T03:48:14.094Z,17.60
2019-06-20T03:50:41.299Z,17.50
2019-06-20T03:53:08.641Z,17.50
2019-06-20T03:55:35.968Z,17.60
2019-06-20T03:58:03.892Z,17.60
2019-06-20T04:00:32.866Z,17.60
2019-06-20T04:03:00.208Z,17.70
2019-06-20T04:05:27.550Z,17.70
2019-06-20T04:07:55.006Z,17.70
2019-06-20T04:10:22.232Z,17.70
2019-06-20T04:12:49.554Z,17.70
2019-06-20T04:15:19.431Z,17.70
2019-06-20T04:17:46.523Z,17.70
2019-06-20T04:20:14.269Z,17.80
2019-06-20T04:22:41.666Z,17.80
2019-06-20T04:25:09.113Z,17.80
2019-06-20T04:27:36.418Z,17.80
2019-06-20T04:30:04.525Z,17.80
2019-06-20T04:32:31.874Z,17.80
2019-06-20T04:34:59.167Z,17.90
2019-06-20T04:37:26.551Z,17.90
2019-06-20T04:39:53.903Z,17.90
2019-06-20T04:42:21.301Z,17.90
2019-06-20T04:44:49.526Z,17.90
2019-06-20T04:47:19.163Z,18.00
2019-06-20T04:49:46.839Z,18.00
2019-06-20T04:52:14.294Z,18.00
2019-06-20T04:54:41.489Z,18.10
2019-06-20T04:57:08.733Z,18.10
2019-06-20T04:59:36.087Z,18.20
2019-06-20T05:02:03.589Z,18.30
2019-06-20T05:04:30.778Z,18.30
2019-06-20T05:07:05.949Z,18.30
2019-06-20T05:09:33.165Z,18.50
2019-06-20T05:12:02.529Z,18.50
2019-06-20T05:14:29.787Z,18.60
2019-06-20T05:16:57.081Z,18.60
2019-06-20T05:19:24.342Z,18.70
2019-06-20T05:21:51.657Z,18.70
2019-06-20T05:24:18.982Z,18.70
2019-06-20T05:26:46.305Z,18.70
2019-06-20T05:29:13.687Z,18.70
2019-06-20T05:31:41.078Z,18.70
2019-06-20T05:34:08.389Z,18.70
2019-06-20T05:36:35.736Z,18.70
2019-06-20T05:39:04.472Z,18.70
2019-06-20T05:41:31.930Z,18.70
2019-06-20T05:43:59.212Z,18.70
2019-06-20T05:46:26.625Z,18.70
2019-06-20T05:48:53.836Z,18.70
2019-06-20T05:51:21.240Z,18.70
2019-06-20T05:53:48.581Z,18.80
2019-06-20T05:56:15.789Z,18.80
2019-06-20T05:58:43.148Z,18.90
2019-06-20T06:01:11.802Z,19.00
2019-06-20T06:03:39.407Z,19.20
2019-06-20T06:06:06.741Z,19.40
2019-06-20T06:08:34.163Z,19.60
2019-06-20T06:11:01.536Z,19.80
2019-06-20T06:13:28.743Z,19.90
2019-06-20T06:15:56.044Z,19.90
2019-06-20T06:18:23.476Z,19.90
2019-06-20T06:20:50.885Z,20.00
2019-06-20T06:23:18.245Z,20.10
2019-06-20T06:25:45.569Z,20.10
2019-06-20T06:28:12.938Z,20.20
2019-06-20T06:30:40.293Z,20.30
2019-06-20T06:33:07.624Z,20.50
2019-06-20T06:35:37.719Z,20.60
2019-06-20T06:38:05.015Z,20.70
2019-06-20T06:40:32.230Z,20.70
2019-06-20T06:42:59.573Z,20.70
2019-06-20T06:45:26.885Z,20.70
2019-06-20T06:47:55.125Z,20.80
2019-06-20T06:50:22.621Z,20.90
2019-06-20T06:52:49.833Z,20.90
2019-06-20T06:55:17.951Z,21.00
2019-06-20T06:57:45.301Z,21.00
2019-06-20T07:00:12.819Z,21.10
2019-06-20T07:02:40.130Z,21.20
2019-06-20T07:05:08.353Z,21.10
2019-06-20T07:07:35.686Z,21.10
2019-06-20T07:10:03.951Z,21.00
2019-06-20T07:12:31.271Z,21.00
2019-06-20T07:14:58.580Z,20.90
2019-06-20T07:17:25.917Z,21.00
2019-06-20T07:19:53.385Z,21.10
2019-06-20T07:22:20.785Z,21.10
2019-06-20T07:24:48.246Z,21.30
2019-06-20T07:27:15.469Z,21.40
2019-06-20T07:29:42.789Z,21.50
2019-06-20T07:32:10.147Z,21.70
2019-06-20T07:34:37.481Z,21.90
2019-06-20T07:37:04.847Z,22.10
2019-06-20T07:39:32.075Z,22.10
2019-06-20T07:41:59.473Z,22.10
2019-06-20T07:44:26.794Z,21.90
2019-06-20T07:46:54.135Z,21.60
2019-06-20T07:49:21.488Z,21.30
2019-06-20T07:51:48.849Z,21.40
2019-06-20T07:54:16.166Z,21.60
2019-06-20T07:56:43.526Z,21.70
2019-06-20T07:59:11.049Z,21.90
2019-06-20T08:01:38.374Z,21.90
2019-06-20T08:04:05.818Z,21.90
2019-06-20T08:06:33.272Z,21.90
2019-06-20T08:09:00.672Z,22.00
2019-06-20T08:11:27.932Z,22.10
2019-06-20T08:13:55.142Z,22.10
2019-06-20T08:16:22.596Z,22.20
2019-06-20T08:18:50.705Z,22.20
2019-06-20T08:21:17.972Z,22.10
2019-06-20T08:23:45.438Z,22.20
2019-06-20T08:26:12.744Z,22.30
2019-06-20T08:28:39.953Z,22.40
2019-06-20T08:31:07.296Z,22.60
2019-06-20T08:33:34.714Z,22.90
2019-06-20T08:36:02.270Z,23.20
2019-06-20T08:38:29.700Z,23.40
2019-06-20T08:40:58.473Z,23.20
2019-06-20T08:43:25.915Z,23.30
2019-06-20T08:45:53.250Z,23.40
2019-06-20T08:48:20.592Z,23.60
2019-06-20T08:50:48.122Z,23.50
2019-06-20T08:53:15.556Z,23.20
2019-06-20T08:55:42.757Z,23.00
2019-06-20T08:58:10.775Z,22.70
2019-06-20T09:00:38.285Z,22.40
2019-06-20T09:03:05.634Z,22.40
2019-06-20T09:05:33.127Z,22.40
2019-06-20T09:10:38.631Z,22.70
2019-06-20T09:13:10.053Z,22.80
2019-06-20T09:15:37.732Z,22.70
2019-06-20T09:18:05.897Z,22.70
2019-06-20T09:20:33.344Z,22.60
2019-06-20T09:23:01.166Z,22.80
2019-06-20T09:25:28.570Z,22.90
2019-06-20T09:27:56.172Z,22.90
2019-06-20T09:30:23.924Z,23.20
2019-06-20T09:32:52.439Z,23.40
2019-06-20T09:35:21.171Z,23.50
2019-06-20T09:37:48.622Z,23.60
2019-06-20T09:40:16.337Z,23.90
2019-06-20T09:42:43.752Z,24.10
2019-06-20T09:45:11.782Z,24.80
2019-06-20T09:47:39.232Z,25.50
2019-06-20T09:50:07.084Z,25.90
2019-06-20T09:52:34.341Z,26.70
2019-06-20T09:55:01.921Z,27.40
2019-06-20T09:57:29.406Z,27.80
2019-06-20T10:00:07.623Z,28.30
2019-06-20T10:02:26.097Z,29.70
2019-06-20T10:04:54.461Z,31.00
2019-06-20T10:07:22.056Z,31.20
2019-06-20T10:09:49.910Z,31.00
2019-06-20T10:12:17.367Z,30.60
2019-06-20T10:14:46.324Z,29.80
2019-06-20T10:17:13.841Z,29.30
2019-06-20T10:19:41.247Z,29.00
2019-06-20T10:22:09.414Z,28.90
2019-06-20T10:24:36.766Z,28.90
2019-06-20T10:27:04.145Z,28.80
2019-06-20T10:29:31.650Z,28.70
2019-06-20T10:31:59.061Z,28.70
2019-06-20T10:34:26.422Z,28.50
2019-06-20T10:36:53.766Z,28.20
2019-06-20T10:39:21.089Z,27.80
2019-06-20T10:41:48.613Z,27.50
2019-06-20T10:44:16.248Z,27.80
2019-06-20T10:46:44.574Z,29.00
2019-06-20T10:49:12.905Z,30.90
2019-06-20T10:51:45.583Z,31.30
2019-06-20T10:54:13.378Z,32.20
2019-06-20T10:56:42.237Z,33.30
2019-06-20T10:59:10.372Z,33.20
2019-06-20T11:01:37.895Z,32.50
2019-06-20T11:04:05.423Z,32.80
2019-06-20T11:06:32.716Z,32.00
2019-06-20T11:09:00.141Z,30.90
2019-06-20T11:11:27.512Z,29.90
2019-06-20T11:13:54.889Z,29.40
2019-06-20T11:16:22.138Z,30.20
2019-06-20T11:18:49.485Z,30.40
2019-06-20T11:21:17.245Z,30.00
2019-06-20T11:23:45.260Z,29.50
2019-06-20T11:26:12.638Z,29.10
2019-06-20T11:28:41.331Z,28.90
2019-06-20T11:31:08.879Z,28.80
2019-06-20T11:33:37.126Z,28.60
2019-06-20T11:36:05.361Z,28.60
2019-06-20T11:38:32.689Z,29.00
2019-06-20T11:41:00.028Z,29.00
2019-06-20T11:43:27.277Z,29.10
2019-06-20T11:45:54.593Z,28.90
2019-06-20T11:48:22.097Z,28.60
2019-06-20T11:50:49.406Z,28.30
2019-06-20T11:53:16.755Z,27.90
2019-06-20T11:55:44.120Z,27.50
2019-06-20T11:58:11.401Z,27.20
2019-06-20T12:00:38.958Z,26.90
2019-06-20T12:03:06.345Z,26.70
2019-06-20T12:05:33.668Z,26.40
2019-06-20T12:08:00.900Z,26.20
2019-06-20T12:10:28.256Z,26.00
2019-06-20T12:12:55.643Z,25.90
2019-06-20T12:15:23.396Z,25.80
2019-06-20T12:17:50.827Z,25.80
2019-06-20T12:20:19.172Z,25.90
2019-06-20T12:22:46.716Z,26.00
2019-06-20T12:25:16.236Z,26.10
2019-06-20T12:27:45.024Z,26.10
2019-06-20T12:30:14.160Z,25.90
2019-06-20T12:32:42.496Z,25.80
2019-06-20T12:35:10.648Z,25.40
2019-06-20T12:37:40.353Z,25.20
2019-06-20T12:40:07.447Z,25.10
2019-06-20T12:42:34.912Z,25.00
2019-06-20T12:45:02.270Z,24.70
2019-06-20T12:47:29.689Z,24.60
2019-06-20T12:49:57.147Z,24.50
2019-06-20T12:52:24.598Z,24.30
2019-06-20T12:54:51.977Z,24.10
2019-06-20T12:57:19.321Z,23.90
2019-06-20T12:59:46.686Z,23.70
2019-06-20T13:02:14.043Z,23.50
2019-06-20T13:04:41.687Z,23.40
2019-06-20T13:07:08.914Z,23.20
2019-06-20T13:09:37.536Z,23.00
2019-06-20T13:12:05.687Z,22.70
2019-06-20T13:14:33.076Z,22.50
2019-06-20T13:17:00.525Z,22.30
2019-06-20T13:19:27.875Z,22.00
2019-06-20T13:21:55.204Z,21.80
2019-06-20T13:24:22.542Z,21.70
2019-06-20T13:26:50.793Z,21.60
2019-06-20T13:29:18.092Z,21.60
2019-06-20T13:32:00.901Z,21.70
2019-06-20T13:34:14.664Z,21.60
2019-06-20T13:36:42.892Z,21.50
2019-06-20T13:39:10.311Z,21.50
2019-06-20T13:41:39.418Z,21.50
2019-06-20T13:44:06.831Z,21.70
2019-06-20T13:46:34.215Z,21.80
2019-06-20T13:49:01.982Z,21.90
2019-06-20T13:51:29.347Z,22.10
2019-06-20T13:53:56.713Z,22.20
2019-06-20T13:56:24.021Z,22.20
2019-06-20T13:58:51.404Z,22.10
2019-06-20T14:01:18.651Z,22.00
2019-06-20T14:03:46.994Z,21.90
2019-06-20T14:06:14.783Z,21.90
2019-06-20T14:08:42.911Z,22.00
2019-06-20T14:11:11.398Z,22.00
2019-06-20T14:13:41.058Z,22.00
2019-06-20T14:16:08.018Z,22.00
2019-06-20T14:18:35.449Z,22.20
2019-06-20T14:21:02.833Z,22.30
2019-06-20T14:23:30.269Z,22.40
2019-06-20T14:25:57.631Z,22.40
2019-06-20T14:28:25.007Z,22.40
2019-06-20T14:30:52.723Z,22.30
2019-06-20T14:33:20.163Z,22.20
2019-06-20T14:35:49.300Z,22.10
2019-06-20T14:38:16.741Z,22.00
2019-06-20T14:40:45.328Z,22.00
2019-06-20T14:43:12.725Z,21.80
2019-06-20T14:45:40.082Z,21.70
2019-06-20T14:48:07.493Z,21.60
2019-06-20T14:50:34.845Z,21.50
2019-06-20T14:53:02.233Z,21.30
2019-06-20T14:55:29.589Z,21.30
2019-06-20T14:57:57.079Z,21.20
2019-06-20T15:00:24.747Z,21.20
2019-06-20T15:02:56.797Z,21.10
2019-06-20T15:05:22.065Z,21.10
2019-06-20T15:07:51.508Z,21.10
2019-06-20T15:10:18.773Z,21.10
2019-06-20T15:12:47.930Z,21.10
2019-06-20T15:15:15.653Z,21.10
2019-06-20T15:17:43.237Z,21.10
2019-06-20T15:20:10.673Z,21.10
2019-06-20T15:22:37.985Z,21.20
2019-06-20T15:25:05.344Z,21.30
2019-06-20T15:27:33.971Z,21.20
2019-06-20T15:30:01.276Z,21.30
2019-06-20T15:32:28.826Z,21.40
2019-06-20T15:34:57.321Z,21.50
2019-06-20T15:37:24.769Z,21.50
2019-06-20T15:39:53.346Z,21.50
2019-06-20T15:42:22.477Z,21.50
2019-06-20T15:44:50.640Z,21.50
2019-06-20T15:47:19.084Z,21.50
2019-06-20T15:49:46.509Z,21.60
2019-06-20T15:52:13.817Z,21.60
2019-06-20T15:54:41.053Z,21.80
2019-06-20T15:57:08.410Z,21.90
2019-06-20T15:59:35.760Z,22.00
2019-06-20T16:02:03.090Z,22.10
2019-06-20T16:04:30.468Z,22.20
2019-06-20T16:06:57.851Z,22.10
2019-06-20T16:09:25.219Z,22.20
2019-06-20T16:11:52.603Z,22.20
2019-06-20T16:14:20.112Z,22.30
2019-06-20T16:16:47.534Z,22.30
2019-06-20T16:19:14.813Z,22.60
2019-06-20T16:21:42.038Z,22.90
2019-06-20T16:24:11.922Z,23.20
2019-06-20T16:26:38.421Z,23.30
2019-06-20T16:29:06.529Z,23.00
2019-06-20T16:31:33.841Z,22.90
2019-06-20T16:34:01.449Z,22.90
2019-06-20T16:36:28.655Z,23.00
2019-06-20T16:38:56.215Z,22.90
2019-06-20T16:41:23.534Z,23.00
2019-06-20T16:43:50.750Z,23.00
2019-06-20T16:46:18.201Z,23.00
2019-06-20T16:48:45.435Z,22.90
2019-06-20T16:51:12.645Z,22.90
2019-06-20T16:53:40.097Z,22.80
2019-06-20T16:56:07.317Z,22.80
2019-06-20T16:58:34.608Z,22.60
2019-06-20T17:01:01.994Z,22.50
2019-06-20T17:03:41.323Z,22.40
2019-06-20T17:05:58.530Z,22.40
2019-06-20T17:08:25.815Z,22.30
2019-06-20T17:10:53.137Z,22.40
2019-06-20T17:13:20.486Z,22.40
2019-06-20T17:15:47.764Z,22.50
2019-06-20T17:18:15.140Z,22.50
2019-06-20T17:20:42.584Z,22.50
2019-06-20T17:23:09.994Z,22.30
2019-06-20T17:25:37.399Z,22.30
2019-06-20T17:28:04.706Z,22.20
2019-06-20T17:30:32.021Z,22.10
2019-06-20T17:32:59.349Z,22.10
2019-06-20T17:35:26.745Z,22.10
2019-06-20T17:37:54.117Z,22.10
2019-06-20T17:40:23.385Z,22.10
2019-06-20T17:42:50.795Z,22.00
2019-06-20T17:45:18.377Z,21.90
2019-06-20T17:47:45.730Z,21.90
2019-06-20T17:50:15.045Z,21.80
2019-06-20T17:52:42.516Z,21.70
2019-06-20T17:55:11.983Z,21.70
2019-06-20T17:57:39.472Z,21.60
2019-06-20T18:00:07.282Z,21.60
2019-06-20T18:02:34.643Z,21.60
2019-06-20T18:05:02.113Z,21.60
2019-06-20T18:07:29.494Z,21.60
2019-06-20T18:09:56.954Z,21.60
2019-06-20T18:12:24.404Z,21.60
2019-06-20T18:14:51.934Z,21.60
2019-06-20T18:17:19.265Z,21.70
2019-06-20T18:19:46.483Z,21.60
2019-06-20T18:22:13.683Z,21.60
2019-06-20T18:24:41.062Z,21.50
2019-06-20T18:27:08.456Z,21.50
2019-06-20T18:29:35.890Z,21.40
2019-06-20T18:32:03.407Z,21.40
2019-06-20T18:34:30.810Z,21.40
2019-06-20T18:36:58.256Z,21.40
2019-06-20T18:39:25.575Z,21.40
2019-06-20T18:41:52.929Z,21.40
2019-06-20T18:44:20.272Z,21.40
2019-06-20T18:46:48.807Z,21.30
2019-06-20T18:49:16.152Z,21.30
2019-06-20T18:51:43.504Z,21.20
2019-06-20T18:54:10.954Z,21.20
2019-06-20T18:56:38.360Z,21.20
2019-06-20T18:59:05.742Z,21.20
2019-06-20T19:01:32.989Z,21.10
2019-06-20T19:04:00.530Z,21.00
2019-06-20T19:06:35.923Z,20.90
2019-06-20T19:08:57.053Z,20.90
2019-06-20T19:11:24.482Z,20.70
2019-06-20T19:13:51.856Z,20.70
2019-06-20T19:16:19.092Z,20.70
2019-06-20T19:18:46.590Z,20.70
2019-06-20T19:21:13.976Z,20.70
2019-06-20T19:23:41.343Z,20.70
2019-06-20T19:26:08.730Z,20.70
2019-06-20T19:28:36.138Z,20.60
2019-06-20T19:31:03.550Z,20.60
2019-06-20T19:33:30.964Z,20.50
2019-06-20T19:35:58.339Z,20.50
2019-06-20T19:38:25.773Z,20.40
2019-06-20T19:40:53.070Z,20.30
2019-06-20T19:43:20.533Z,20.30
2019-06-20T19:45:48.025Z,20.20
2019-06-20T19:48:15.595Z,20.20
2019-06-20T19:50:43.490Z,20.10
2019-06-20T19:53:11.378Z,20.10
2019-06-20T19:55:39.242Z,20.00
2019-06-20T19:58:07.056Z,20.00
2019-06-20T20:00:34.387Z,19.90
2019-06-20T20:03:02.088Z,19.80
2019-06-20T20:05:29.608Z,19.70
2019-06-20T20:07:57.193Z,19.60
2019-06-20T20:10:54.248Z,19.60
2019-06-20T20:13:21.614Z,19.50
2019-06-20T20:15:48.981Z,19.40
2019-06-20T20:18:16.484Z,19.40
2019-06-20T20:20:47.350Z,19.30
2019-06-20T20:23:13.934Z,19.20
2019-06-20T20:25:41.287Z,19.10
2019-06-20T20:28:08.675Z,19.10
2019-06-20T20:30:36.053Z,19.00
2019-06-20T20:33:03.402Z,19.00
2019-06-20T20:35:35.436Z,18.90
2019-06-20T20:38:00.547Z,18.90
2019-06-20T20:40:28.051Z,18.90
2019-06-20T20:42:55.384Z,18.80
2019-06-20T20:45:22.688Z,18.80
2019-06-20T20:47:50.142Z,18.80
2019-06-20T20:50:17.726Z,18.60
2019-06-20T20:52:45.054Z,18.60
2019-06-20T20:55:12.417Z,18.60
2019-06-20T20:57:39.709Z,18.60
2019-06-20T21:00:07.751Z,18.50
2019-06-20T21:02:35.160Z,18.50
2019-06-20T21:05:02.599Z,18.40
2019-06-20T21:07:30.009Z,18.40
2019-06-20T21:09:57.354Z,18.30
2019-06-20T21:12:24.624Z,18.30
2019-06-20T21:14:51.983Z,18.20
2019-06-20T21:17:19.305Z,18.10
2019-06-20T21:19:46.667Z,18.10
2019-06-20T21:22:14.189Z,18.10
2019-06-20T21:24:41.575Z,18.00
2019-06-20T21:27:09.004Z,17.90
2019-06-20T21:29:36.372Z,17.90
2019-06-20T21:32:03.600Z,17.80
2019-06-20T21:34:30.953Z,17.80
2019-06-20T21:36:58.317Z,17.70
2019-06-20T21:39:25.708Z,17.70
2019-06-20T21:41:53.226Z,17.70
2019-06-20T21:44:20.598Z,17.70
2019-06-20T21:46:47.996Z,17.70
2019-06-20T21:49:15.441Z,17.70
2019-06-20T21:51:44.770Z,17.70
2019-06-20T21:54:12.086Z,17.70
2019-06-20T21:56:39.478Z,17.70
2019-06-20T21:59:06.783Z,17.70
2019-06-20T22:01:34.148Z,17.60
2019-06-20T22:04:01.845Z,17.60
2019-06-20T22:06:29.166Z,17.60
2019-06-20T22:08:56.526Z,17.60
2019-06-20T22:11:23.840Z,17.60
2019-06-20T22:13:51.254Z,17.60
2019-06-20T22:16:18.634Z,17.60
2019-06-20T22:18:46.007Z,17.60
2019-06-20T22:21:13.447Z,17.60
2019-06-20T22:23:40.773Z,17.60
2019-06-20T22:26:08.066Z,17.60
2019-06-20T22:28:35.383Z,17.50
2019-06-20T22:31:03.295Z,17.50
2019-06-20T22:33:30.542Z,17.50
2019-06-20T22:35:57.879Z,17.50
2019-06-20T22:38:25.162Z,17.50
2019-06-20T22:40:52.592Z,17.50
2019-06-20T22:43:20.042Z,17.40
2019-06-20T22:45:47.364Z,17.50
2019-06-20T22:48:14.880Z,17.50
2019-06-20T22:50:42.239Z,17.50
2019-06-20T22:53:09.615Z,17.50
2019-06-20T22:55:36.964Z,17.50
2019-06-20T22:58:04.429Z,17.50
2019-06-20T23:00:31.763Z,17.50
2019-06-20T23:02:59.016Z,17.60
2019-06-20T23:05:26.385Z,17.60
2019-06-20T23:07:53.668Z,17.60
2019-06-20T23:10:21.018Z,17.60
2019-06-20T23:12:48.344Z,17.60
2019-06-20T23:15:15.911Z,17.60
2019-06-20T23:17:43.215Z,17.60
2019-06-20T23:20:12.391Z,17.60
2019-06-20T23:22:39.851Z,17.50
2019-06-20T23:25:07.614Z,17.50
2019-06-20T23:27:35.147Z,17.50
2019-06-20T23:30:02.574Z,17.50
2019-06-20T23:32:29.900Z,17.40
2019-06-20T23:34:57.214Z,17.40
2019-06-20T23:37:24.471Z,17.40
2019-06-20T23:39:51.833Z,17.40
2019-06-20T23:42:19.036Z,17.40
2019-06-20T23:44:46.539Z,17.50
2019-06-20T23:47:13.743Z,17.40
2019-06-20T23:49:41.098Z,17.40
2019-06-20T23:52:13.471Z,17.40
2019-06-20T23:54:40.882Z,17.40
2019-06-20T23:57:08.297Z,17.40
2019-06-20T23:59:35.727Z,17.40
